Time;durP1;ratioP1;P1;durP2;ratioP2;P2;SDS_P1;SDS_P2;PMS_P1;PMS_P2;Temp;Humidity;BMP_temperature;BMP_pressure;BME280_temperature;BME280_humidity;BME280_pressure;Samples;Min_cycle;Max_cycle;Signal;HPM_P1;HPM_P2
2023/12/19 00:01:46;;;;;;;8.40;5.60;;;;;;;5.73;100.00;101170.59;108170;1253;72304;-74
2023/12/19 00:04:14;;;;;;;8.70;6.40;;;;;;;5.72;100.00;101173.11;108238;1254;59725;-74
2023/12/19 00:06:42;;;;;;;8.90;5.60;;;;;;;5.72;100.00;101170.34;108195;1253;62219;-74
2023/12/19 00:09:09;;;;;;;9.60;6.70;;;;;;;5.71;100.00;101177.78;108330;1253;73921;-73
2023/12/19 00:11:37;;;;;;;9.70;6.80;;;;;;;5.69;100.00;101188.63;108204;1253;72783;-73
2023/12/19 00:14:06;;;;;;;9.80;7.20;;;;;;;5.67;100.00;101183.33;108149;1253;71454;-74
2023/12/19 00:16:36;;;;;;;10.20;7.00;;;;;;;5.69;100.00;101177.65;108244;1253;60873;-74
2023/12/19 00:19:04;;;;;;;8.70;6.20;;;;;;;5.70;100.00;101167.91;108012;1253;60347;-74
2023/12/19 00:21:31;;;;;;;7.60;5.20;;;;;;;5.71;100.00;101164.32;108188;1253;72671;-73
2023/12/19 00:23:59;;;;;;;6.60;4.90;;;;;;;5.70;100.00;101165.45;108328;1256;71908;-74
2023/12/19 00:26:27;;;;;;;6.20;4.80;;;;;;;5.68;100.00;101168.08;108130;1253;71549;-74
2023/12/19 00:28:54;;;;;;;6.40;4.50;;;;;;;5.66;100.00;101167.02;108135;1253;61660;-74
2023/12/19 00:31:22;;;;;;;6.00;4.20;;;;;;;5.66;100.00;101174.01;108140;1253;60469;-74
2023/12/19 00:33:50;;;;;;;5.80;4.40;;;;;;;5.65;100.00;101174.77;108421;1253;72528;-73
2023/12/19 00:36:22;;;;;;;7.30;4.50;;;;;;;5.65;100.00;101169.52;108149;1253;72739;-72
2023/12/19 00:38:51;;;;;;;5.90;4.60;;;;;;;5.66;100.00;101168.16;107946;1257;72714;-73
2023/12/19 00:41:18;;;;;;;5.10;3.80;;;;;;;5.64;100.00;101169.23;108075;1257;60387;-74
2023/12/19 00:43:46;;;;;;;5.00;3.90;;;;;;;5.63;100.00;101165.73;108129;1253;61061;-74
2023/12/19 00:46:14;;;;;;;5.70;4.10;;;;;;;5.63;100.00;101164.80;108155;1253;73826;-75
2023/12/19 00:48:41;;;;;;;6.20;4.40;;;;;;;5.64;100.00;101158.63;108083;1258;72688;-73
2023/12/19 00:51:12;;;;;;;6.00;4.10;;;;;;;5.64;100.00;101153.90;108089;1253;71677;-72
2023/12/19 00:53:41;;;;;;;6.70;4.30;;;;;;;5.64;100.00;101154.84;108182;1253;60355;-73
2023/12/19 00:56:09;;;;;;;4.90;4.00;;;;;;;5.61;100.00;101155.50;108205;1253;60312;-73
2023/12/19 00:58:37;;;;;;;5.80;4.10;;;;;;;5.63;100.00;101152.01;108119;1253;72291;-73
2023/12/19 01:01:05;;;;;;;6.80;4.80;;;;;;;5.64;100.00;101155.54;108223;1253;72731;-73
2023/12/19 01:03:34;;;;;;;5.90;4.40;;;;;;;5.64;100.00;101154.17;108204;1253;71471;-73
2023/12/19 01:06:03;;;;;;;6.30;4.40;;;;;;;5.66;100.00;101152.63;108149;1257;60695;-73
2023/12/19 01:08:31;;;;;;;5.20;3.60;;;;;;;5.65;100.00;101152.35;108133;1253;60391;-73
2023/12/19 01:10:59;;;;;;;6.10;3.90;;;;;;;5.65;100.00;101151.36;108158;1253;72649;-72
2023/12/19 01:13:26;;;;;;;5.60;4.00;;;;;;;5.64;100.00;101146.69;108196;1253;71496;-72
2023/12/19 01:15:54;;;;;;;5.30;4.00;;;;;;;5.64;100.00;101148.02;108120;1253;72780;-72
2023/12/19 01:18:21;;;;;;;5.10;3.80;;;;;;;5.67;100.00;101143.13;108217;1253;60437;-74
2023/12/19 01:20:50;;;;;;;4.80;3.50;;;;;;;5.69;100.00;101139.57;108103;1253;60395;-74
2023/12/19 01:23:18;;;;;;;5.50;3.80;;;;;;;5.70;100.00;101137.77;108095;1254;72224;-73
2023/12/19 01:25:45;;;;;;;5.50;3.50;;;;;;;5.71;100.00;101137.80;108130;1254;72809;-76
2023/12/19 01:28:13;;;;;;;5.90;3.60;;;;;;;5.72;100.00;101134.74;108065;1253;71526;-73
2023/12/19 01:30:42;;;;;;;4.30;3.30;;;;;;;5.75;100.00;101128.89;108142;1258;60371;-74
2023/12/19 01:33:10;;;;;;;4.80;3.60;;;;;;;5.76;100.00;101127.75;108118;1253;60186;-73
2023/12/19 01:35:38;;;;;;;5.00;3.40;;;;;;;5.76;100.00;101128.77;108122;1253;73082;-73
2023/12/19 01:38:06;;;;;;;6.10;4.10;;;;;;;5.76;100.00;101126.61;108141;1253;71628;-74
2023/12/19 01:40:34;;;;;;;6.00;4.30;;;;;;;5.75;100.00;101125.23;108252;1254;71467;-74
2023/12/19 01:43:01;;;;;;;8.40;5.00;;;;;;;5.74;100.00;101121.13;108214;1254;60459;-72
2023/12/19 01:45:30;;;;;;;7.00;4.40;;;;;;;5.74;100.00;101117.57;108149;1253;60316;-73
2023/12/19 01:47:57;;;;;;;5.60;3.80;;;;;;;5.73;100.00;101114.48;108125;1253;72613;-73
2023/12/19 01:50:25;;;;;;;5.10;4.00;;;;;;;5.74;100.00;101112.80;108292;1253;72714;-73
2023/12/19 01:52:54;;;;;;;6.00;4.20;;;;;;;5.75;100.00;101105.45;108220;1253;72499;-73
2023/12/19 01:55:25;;;;;;;4.90;3.70;;;;;;;5.75;100.00;101102.27;108139;1253;60466;-73
2023/12/19 01:57:56;;;;;;;5.00;3.70;;;;;;;5.75;100.00;101095.45;108041;1253;237715;-73
2023/12/19 02:00:24;;;;;;;5.30;4.20;;;;;;;5.77;100.00;101095.36;108171;1253;73313;-74
2023/12/19 02:02:52;;;;;;;8.50;5.30;;;;;;;5.79;100.00;101098.30;108091;1253;71744;-73
2023/12/19 02:05:20;;;;;;;5.90;4.60;;;;;;;5.79;100.00;101097.81;108139;1254;72774;-73
2023/12/19 02:07:48;;;;;;;7.40;5.30;;;;;;;5.81;100.00;101099.48;108176;1254;60296;-74
2023/12/19 02:10:16;;;;;;;5.30;4.10;;;;;;;5.83;100.00;101094.08;108181;1253;60164;-73
2023/12/19 02:12:44;;;;;;;6.10;3.80;;;;;;;5.83;100.00;101098.13;108156;1253;72208;-72
2023/12/19 02:15:13;;;;;;;4.80;3.60;;;;;;;5.80;100.00;101095.52;108144;1253;71459;-75
2023/12/19 02:17:41;;;;;;;4.80;3.50;;;;;;;5.81;100.00;101096.62;108045;1258;72732;-74
2023/12/19 02:20:09;;;;;;;4.90;3.50;;;;;;;5.83;100.00;101090.86;107947;1257;61734;-74
2023/12/19 02:22:37;;;;;;;4.80;3.40;;;;;;;5.84;100.00;101091.09;108099;1256;60242;-73
2023/12/19 02:25:06;;;;;;;5.40;3.70;;;;;;;5.84;100.00;101086.77;108192;1254;73877;-74
2023/12/19 02:27:35;;;;;;;5.40;3.60;;;;;;;5.84;100.00;101086.69;108152;1253;70912;-73
2023/12/19 02:30:05;;;;;;;5.30;3.60;;;;;;;5.82;100.00;101085.31;108072;1253;72962;-73
2023/12/19 02:32:34;;;;;;;5.70;4.10;;;;;;;5.80;100.00;101088.35;108132;1253;62722;-75
2023/12/19 02:35:16;;;;;;;5.50;3.90;;;;;;;5.79;100.00;101085.61;108106;1253;60335;-72
2023/12/19 02:38:17;;;;;;;4.40;3.40;;;;;;;5.87;100.00;101079.86;108075;1255;73948;-73
2023/12/19 02:41:04;;;;;;;5.60;3.90;;;;;;;5.89;100.00;101076.84;108097;1253;74837;-73
2023/12/19 02:43:34;;;;;;;5.50;4.00;;;;;;;5.88;100.00;101074.42;108084;1259;75141;-72
2023/12/19 02:46:01;;;;;;;5.20;4.10;;;;;;;5.89;100.00;101069.70;108027;1255;60403;-75
2023/12/19 02:48:29;;;;;;;7.30;4.30;;;;;;;5.90;100.00;101068.02;108019;1253;60312;-72
2023/12/19 02:50:57;;;;;;;5.40;4.00;;;;;;;6.02;100.00;101063.16;108088;1255;73184;-73
2023/12/19 02:53:24;;;;;;;4.90;4.20;;;;;;;6.17;100.00;101069.42;108091;1262;71453;-74
2023/12/19 02:55:52;;;;;;;6.30;4.00;;;;;;;6.23;100.00;101077.74;108010;1254;71587;-74
2023/12/19 02:58:20;;;;;;;5.50;4.30;;;;;;;6.24;100.00;101083.08;108179;1256;60901;-72
2023/12/19 03:00:47;;;;;;;5.80;4.50;;;;;;;6.22;100.00;101082.41;108110;1253;60290;-73
2023/12/19 03:03:15;;;;;;;6.20;4.90;;;;;;;6.21;100.00;101081.51;108033;1254;72545;-72
2023/12/19 03:05:43;;;;;;;6.50;5.40;;;;;;;6.21;100.00;101076.94;108023;1254;72088;-73
2023/12/19 03:08:10;;;;;;;6.30;4.60;;;;;;;6.21;100.00;101076.45;107985;1257;70465;-72
2023/12/19 03:10:38;;;;;;;6.70;4.80;;;;;;;6.21;100.00;101078.54;108058;1259;61635;-72
2023/12/19 03:13:06;;;;;;;6.10;5.10;;;;;;;6.22;100.00;101085.10;108136;1254;60360;-73
2023/12/19 03:15:34;;;;;;;6.70;5.20;;;;;;;6.24;100.00;101088.07;108150;1254;73834;-74
2023/12/19 03:18:02;;;;;;;7.40;5.20;;;;;;;6.24;100.00;101087.38;108046;1254;72519;-75
2023/12/19 03:20:30;;;;;;;7.10;4.80;;;;;;;6.23;100.00;101081.79;108040;1254;72171;-73
2023/12/19 03:22:58;;;;;;;6.90;4.90;;;;;;;6.23;100.00;101077.01;108056;1254;60595;-72
2023/12/19 03:25:25;;;;;;;5.50;4.50;;;;;;;6.24;100.00;101075.78;107993;1254;60281;-73
2023/12/19 03:27:53;;;;;;;6.40;4.60;;;;;;;6.24;100.00;101067.81;108008;1254;73830;-72
2023/12/19 03:30:21;;;;;;;7.10;4.90;;;;;;;6.26;100.00;101074.46;108003;1259;71779;-74
2023/12/19 03:32:48;;;;;;;7.00;5.00;;;;;;;6.28;100.00;101081.73;107910;1257;73112;-73
2023/12/19 03:35:16;;;;;;;8.20;5.00;;;;;;;6.31;100.00;101081.93;108025;1257;60691;-73
2023/12/19 03:37:44;;;;;;;7.40;5.00;;;;;;;6.32;100.00;101083.10;107993;1259;60604;-74
2023/12/19 03:40:12;;;;;;;7.40;5.60;;;;;;;6.37;100.00;101079.73;107914;1254;72786;-73
2023/12/19 03:42:40;;;;;;;6.30;4.70;;;;;;;6.40;100.00;101080.52;108111;1254;72702;-74
2023/12/19 03:45:08;;;;;;;7.30;4.70;;;;;;;6.42;100.00;101086.02;108054;1254;73772;-73
2023/12/19 03:47:37;;;;;;;6.70;5.20;;;;;;;6.42;100.00;101080.59;108096;1255;61676;-75
2023/12/19 03:50:06;;;;;;;6.40;5.10;;;;;;;6.43;100.00;101073.40;108061;1254;60164;-76
2023/12/19 03:52:34;;;;;;;6.70;5.00;;;;;;;6.28;100.00;101072.08;107943;1254;73843;-72
2023/12/19 03:55:03;;;;;;;6.50;5.00;;;;;;;6.05;100.00;101069.38;107932;1254;73099;-73
2023/12/19 03:57:31;;;;;;;6.50;5.00;;;;;;;6.19;100.00;101063.35;108068;1254;71534;-73
2023/12/19 03:59:59;;;;;;;6.30;4.40;;;;;;;6.36;100.00;101055.19;108048;1257;61699;-73
2023/12/19 04:02:26;;;;;;;6.60;5.10;;;;;;;6.38;100.00;101053.02;108060;1254;60322;-73
2023/12/19 04:04:54;;;;;;;6.80;4.70;;;;;;;6.38;100.00;101047.83;108069;1254;72906;-74
2023/12/19 04:07:21;;;;;;;6.50;4.70;;;;;;;6.34;100.00;101041.13;108358;1254;72849;-72
2023/12/19 04:09:49;;;;;;;5.80;4.50;;;;;;;6.33;100.00;101036.77;107886;1256;71815;-73
2023/12/19 04:12:17;;;;;;;6.30;4.80;;;;;;;6.44;100.00;101034.80;108108;1256;61762;-73
2023/12/19 04:14:44;;;;;;;7.40;5.20;;;;;;;6.47;100.00;101038.40;107974;1259;60400;-74
2023/12/19 04:17:13;;;;;;;6.10;4.50;;;;;;;6.49;100.00;101038.77;108095;1254;71868;-73
2023/12/19 04:19:43;;;;;;;5.90;4.40;;;;;;;6.47;100.00;101027.67;108094;1254;72714;-74
2023/12/19 04:22:10;;;;;;;6.50;4.50;;;;;;;6.45;100.00;101028.59;108150;1257;71834;-73
2023/12/19 04:24:39;;;;;;;6.30;4.60;;;;;;;6.19;100.00;101039.09;108034;1254;60383;-73
2023/12/19 04:27:07;;;;;;;6.70;5.00;;;;;;;6.03;100.00;101052.02;108059;1257;58993;-74
2023/12/19 04:29:34;;;;;;;6.40;4.60;;;;;;;5.98;100.00;101048.79;108058;1254;72614;-73
2023/12/19 04:32:04;;;;;;;6.20;4.50;;;;;;;5.94;100.00;101047.02;108073;1254;72742;-73
2023/12/19 04:34:31;;;;;;;5.90;4.60;;;;;;;5.90;100.00;101044.86;107996;1260;72906;-73
2023/12/19 04:36:59;;;;;;;6.50;4.70;;;;;;;5.88;100.00;101047.95;108017;1256;60508;-73
2023/12/19 04:39:27;;;;;;;7.40;5.20;;;;;;;5.87;100.00;101048.14;108021;1254;60405;-73
2023/12/19 04:41:54;;;;;;;7.10;5.00;;;;;;;5.84;100.00;101045.09;107993;1254;72567;-72
2023/12/19 04:44:22;;;;;;;6.60;5.10;;;;;;;5.84;100.00;101037.50;108007;1254;71626;-73
2023/12/19 04:46:50;;;;;;;7.80;4.80;;;;;;;5.85;100.00;101035.58;108004;1254;71461;-73
2023/12/19 04:49:17;;;;;;;6.90;5.40;;;;;;;5.87;100.00;101037.35;108057;1254;61708;-73
2023/12/19 04:51:46;;;;;;;6.50;5.10;;;;;;;5.89;100.00;101035.45;108139;1255;60008;-73
2023/12/19 04:54:13;;;;;;;7.20;5.30;;;;;;;5.91;100.00;101028.91;107976;1253;73833;-72
2023/12/19 04:56:42;;;;;;;6.80;5.00;;;;;;;5.92;100.00;101044.05;107974;1254;72758;-72
2023/12/19 04:59:09;;;;;;;8.90;5.40;;;;;;;5.88;100.00;101036.73;108090;1257;72687;-74
2023/12/19 05:01:40;;;;;;;7.30;5.20;;;;;;;5.88;100.00;101028.13;107985;1256;61003;-74
2023/12/19 05:04:09;;;;;;;7.10;5.00;;;;;;;5.90;100.00;101025.27;107953;1254;60435;-73
2023/12/19 05:06:37;;;;;;;6.90;5.40;;;;;;;5.91;100.00;101018.94;108006;1259;72615;-73
2023/12/19 05:09:05;;;;;;;8.40;5.70;;;;;;;5.93;100.00;101003.13;107992;1254;71836;-74
2023/12/19 05:11:32;;;;;;;6.80;5.20;;;;;;;5.93;100.00;101006.64;108015;1258;72742;-73
2023/12/19 05:14:00;;;;;;;8.00;5.40;;;;;;;5.93;100.00;100997.27;108233;1256;61709;-74
2023/12/19 05:16:27;;;;;;;7.30;5.60;;;;;;;5.95;100.00;100999.17;108008;1253;60135;-73
2023/12/19 05:18:55;;;;;;;8.70;5.80;;;;;;;5.96;100.00;100992.55;107992;1254;72909;-74
2023/12/19 05:21:23;;;;;;;5.90;4.30;;;;;;;5.98;100.00;100992.12;108029;1260;72441;-74
2023/12/19 05:23:51;;;;;;;7.90;5.80;;;;;;;5.99;100.00;100996.85;108014;1254;71412;-73
2023/12/19 05:26:19;;;;;;;7.70;5.20;;;;;;;5.96;100.00;100994.64;107995;1254;60399;-72
2023/12/19 05:28:46;;;;;;;7.00;5.60;;;;;;;5.95;100.00;100990.48;108025;1254;60040;-73
2023/12/19 05:31:16;;;;;;;7.50;5.70;;;;;;;5.93;100.00;100980.94;107992;1254;72366;-73
2023/12/19 05:33:44;;;;;;;8.70;6.60;;;;;;;5.96;100.00;100978.58;108075;1254;71352;-73
2023/12/19 05:36:12;;;;;;;8.10;6.10;;;;;;;5.96;100.00;100984.88;108060;1257;71386;-73
2023/12/19 05:38:40;;;;;;;7.60;5.80;;;;;;;5.93;100.00;100981.73;107908;1256;60687;-73
2023/12/19 05:41:08;;;;;;;9.50;6.80;;;;;;;5.93;100.00;100979.48;107999;1254;60046;-73
2023/12/19 05:43:36;;;;;;;8.60;7.10;;;;;;;5.92;100.00;100980.44;107953;1256;72688;-75
2023/12/19 05:46:03;;;;;;;8.40;6.80;;;;;;;5.90;100.00;100970.30;107969;1254;72736;-73
2023/12/19 05:48:31;;;;;;;9.20;7.10;;;;;;;5.90;100.00;100959.69;107905;1257;71486;-73
2023/12/19 05:50:59;;;;;;;9.90;7.10;;;;;;;5.91;100.00;100957.15;107942;1258;60409;-71
2023/12/19 05:53:27;;;;;;;8.80;6.90;;;;;;;5.94;100.00;100959.55;108061;1253;61226;-72
2023/12/19 05:55:55;;;;;;;9.80;7.70;;;;;;;5.94;100.00;100962.75;108120;1259;73278;-73
2023/12/19 05:58:23;;;;;;;9.00;7.30;;;;;;;5.91;100.00;100952.30;108014;1259;71321;-73
2023/12/19 06:00:50;;;;;;;9.90;7.90;;;;;;;5.89;100.00;100952.68;108013;1259;72638;-73
2023/12/19 06:03:18;;;;;;;11.30;8.30;;;;;;;5.86;100.00;100959.63;108035;1257;61834;-73
2023/12/19 06:05:46;;;;;;;10.60;8.30;;;;;;;5.79;100.00;100965.92;108144;1254;60425;-72
2023/12/19 06:08:17;;;;;;;9.90;7.40;;;;;;;5.72;100.00;100971.11;107969;1254;74271;-72
2023/12/19 06:10:44;;;;;;;10.30;8.00;;;;;;;5.68;100.00;100977.59;107935;1254;71771;-72
2023/12/19 06:13:12;;;;;;;11.10;7.90;;;;;;;5.63;100.00;100979.32;108008;1257;72743;-75
2023/12/19 06:15:40;;;;;;;10.90;8.40;;;;;;;5.60;100.00;100977.80;108113;1254;60392;-73
2023/12/19 06:18:07;;;;;;;10.10;7.80;;;;;;;5.57;100.00;100983.64;108120;1255;60301;-73
2023/12/19 06:20:35;;;;;;;10.80;8.30;;;;;;;5.63;100.00;100977.73;108071;1259;72587;-73
2023/12/19 06:23:03;;;;;;;9.70;7.50;;;;;;;5.67;100.00;100970.61;107877;1262;71462;-73
2023/12/19 06:25:32;;;;;;;11.10;8.40;;;;;;;5.71;100.00;100970.50;107999;1255;71695;-73
2023/12/19 06:28:00;;;;;;;11.90;8.70;;;;;;;5.72;100.00;100971.07;107976;1254;61642;-73
2023/12/19 06:30:28;;;;;;;10.60;8.10;;;;;;;5.72;100.00;100965.73;108007;1253;60304;-74
2023/12/19 06:33:01;;;;;;;11.30;8.40;;;;;;;5.74;100.00;100960.34;107954;1254;72540;-72
2023/12/19 06:35:30;;;;;;;11.60;9.10;;;;;;;5.78;100.00;100958.30;108061;1254;71861;-73
2023/12/19 06:37:58;;;;;;;10.30;7.60;;;;;;;5.82;100.00;100952.98;108057;1257;72830;-72
2023/12/19 06:40:25;;;;;;;11.60;8.50;;;;;;;5.85;100.00;100951.04;108039;1257;61845;-73
2023/12/19 06:42:53;;;;;;;11.00;8.10;;;;;;;5.85;100.00;100951.04;108055;1260;60312;-74
2023/12/19 06:45:22;;;;;;;11.20;8.20;;;;;;;5.86;100.00;100952.09;108068;1254;72626;-73
2023/12/19 06:47:50;;;;;;;12.70;8.70;;;;;;;5.86;100.00;100959.44;108024;1260;72682;-73
2023/12/19 06:50:18;;;;;;;12.70;8.90;;;;;;;5.85;100.00;100960.53;108047;1257;71983;-73
2023/12/19 06:52:46;;;;;;;11.00;8.40;;;;;;;5.84;100.00;100957.92;108053;1255;60429;-74
2023/12/19 06:55:14;;;;;;;11.10;7.90;;;;;;;5.86;100.00;100962.40;107960;1255;60420;-73
2023/12/19 06:57:42;;;;;;;11.80;9.20;;;;;;;5.85;100.00;100956.58;108029;1259;73882;-74
2023/12/19 07:00:11;;;;;;;11.80;8.40;;;;;;;5.85;100.00;100956.13;107955;1260;71586;-74
2023/12/19 07:02:39;;;;;;;12.50;9.50;;;;;;;5.85;100.00;100949.35;107978;1254;71653;-73
2023/12/19 07:05:08;;;;;;;10.90;8.10;;;;;;;5.88;100.00;100947.59;108000;1254;60404;-73
2023/12/19 07:07:36;;;;;;;11.70;9.20;;;;;;;5.91;100.00;100940.09;108035;1254;60273;-74
2023/12/19 07:10:04;;;;;;;12.10;8.80;;;;;;;5.91;100.00;100922.73;108025;1254;75937;-74
2023/12/19 07:12:31;;;;;;;12.60;9.10;;;;;;;5.95;100.00;100923.41;108164;1254;71414;-74
2023/12/19 07:14:59;;;;;;;11.60;8.60;;;;;;;5.99;100.00;100923.79;107942;1260;71408;-74
2023/12/19 07:17:27;;;;;;;12.20;8.80;;;;;;;6.03;100.00;100916.56;108001;1259;60394;-73
2023/12/19 07:19:55;;;;;;;12.40;8.60;;;;;;;6.08;100.00;100924.23;107971;1259;60315;-73
2023/12/19 07:22:22;;;;;;;11.90;9.00;;;;;;;6.10;100.00;100934.50;108049;1254;73943;-73
2023/12/19 07:24:50;;;;;;;10.10;8.10;;;;;;;6.13;100.00;100943.21;108068;1254;71488;-73
2023/12/19 07:27:18;;;;;;;11.10;8.60;;;;;;;6.14;100.00;100947.00;108047;1257;72701;-75
2023/12/19 07:29:46;;;;;;;13.70;9.00;;;;;;;6.14;100.00;100943.19;107955;1254;60478;-74
2023/12/19 07:32:13;;;;;;;12.70;8.80;;;;;;;6.15;100.00;100938.65;108037;1254;60047;-72
2023/12/19 07:34:41;;;;;;;12.60;8.70;;;;;;;6.16;100.00;100936.73;108027;1260;73878;-73
2023/12/19 07:37:09;;;;;;;13.80;9.00;;;;;;;6.17;100.00;100936.35;107975;1260;73598;-72
2023/12/19 07:39:37;;;;;;;12.60;8.90;;;;;;;6.17;100.00;100933.54;107991;1258;71622;-73
2023/12/19 07:42:05;;;;;;;11.50;8.80;;;;;;;6.16;100.00;100930.13;107983;1254;60429;-72
2023/12/19 07:44:32;;;;;;;11.40;8.30;;;;;;;6.15;100.00;100927.56;108106;1254;60275;-72
2023/12/19 07:47:00;;;;;;;13.20;9.20;;;;;;;6.14;100.00;100909.63;108101;1254;72858;-72
2023/12/19 07:49:27;;;;;;;11.80;8.60;;;;;;;6.17;100.00;100902.61;108060;1255;72726;-72
2023/12/19 07:51:56;;;;;;;12.20;9.20;;;;;;;6.21;100.00;100906.65;108085;1257;72725;-73
2023/12/19 07:54:24;;;;;;;12.00;8.60;;;;;;;6.23;100.00;100911.90;108110;1257;60372;-72
2023/12/19 07:56:52;;;;;;;12.50;7.90;;;;;;;6.25;100.00;100916.89;108093;1253;60395;-73
2023/12/19 07:59:21;;;;;;;10.90;8.60;;;;;;;6.28;100.00;100912.05;108067;1254;72817;-72
2023/12/19 08:01:48;;;;;;;11.60;8.80;;;;;;;6.29;100.00;100894.49;107982;1254;72818;-73
2023/12/19 08:04:17;;;;;;;12.40;9.10;;;;;;;6.30;100.00;100883.33;108004;1255;71714;-74
2023/12/19 08:06:45;;;;;;;11.70;8.80;;;;;;;6.37;100.00;100882.98;108045;1254;61478;-74
2023/12/19 08:09:14;;;;;;;12.50;9.00;;;;;;;6.40;100.00;100872.66;107976;1255;59993;-73
2023/12/19 08:11:42;;;;;;;11.40;8.90;;;;;;;6.39;100.00;100866.76;108100;1260;72903;-74
2023/12/19 08:14:10;;;;;;;10.70;8.30;;;;;;;6.43;100.00;100866.79;108046;1254;71410;-73
2023/12/19 08:16:37;;;;;;;11.80;9.00;;;;;;;6.48;100.00;100863.45;108153;1260;72481;-74
2023/12/19 08:19:05;;;;;;;11.60;8.10;;;;;;;6.55;100.00;100860.62;108106;1254;60412;-73
2023/12/19 08:21:32;;;;;;;12.80;9.00;;;;;;;6.60;100.00;100855.11;108048;1253;60409;-72
2023/12/19 08:24:03;;;;;;;14.10;9.40;;;;;;;6.60;100.00;100842.09;108127;1254;73861;-75
2023/12/19 08:26:30;;;;;;;11.50;8.90;;;;;;;6.67;100.00;100838.33;107971;1254;71943;-73
2023/12/19 08:28:58;;;;;;;11.70;8.80;;;;;;;6.71;100.00;100832.83;108013;1254;72670;-73
2023/12/19 08:31:26;;;;;;;10.80;8.40;;;;;;;6.81;100.00;100831.44;108105;1254;60647;-75
2023/12/19 08:33:54;;;;;;;12.70;9.20;;;;;;;6.88;100.00;100831.84;108035;1253;60398;-73
2023/12/19 08:36:22;;;;;;;12.10;8.80;;;;;;;6.92;100.00;100833.91;108065;1254;73873;-73
2023/12/19 08:39:01;;;;;;;11.70;8.70;;;;;;;6.92;100.00;100830.94;108024;1254;71459;-78
2023/12/19 08:41:29;;;;;;;10.70;8.60;;;;;;;6.93;100.00;100827.31;108057;1254;71037;-73
2023/12/19 08:43:57;;;;;;;12.40;8.90;;;;;;;6.95;100.00;100821.08;107960;1257;61650;-75
2023/12/19 08:46:24;;;;;;;12.60;9.50;;;;;;;6.92;100.00;100809.80;108017;1254;60533;-73
2023/12/19 08:48:52;;;;;;;12.10;8.80;;;;;;;6.92;100.00;100799.34;108015;1254;73806;-73
2023/12/19 08:51:20;;;;;;;12.50;9.20;;;;;;;6.94;100.00;100796.13;107952;1254;71848;-73
2023/12/19 08:53:48;;;;;;;13.20;9.80;;;;;;;6.94;100.00;100792.78;107929;1257;72719;-74
2023/12/19 08:56:16;;;;;;;13.40;10.10;;;;;;;6.91;100.00;100784.12;108066;1254;61832;-73
2023/12/19 08:58:44;;;;;;;12.60;9.30;;;;;;;6.91;100.00;100776.69;108068;1254;60226;-73
2023/12/19 09:01:12;;;;;;;12.20;9.30;;;;;;;6.89;100.00;100771.90;108109;1254;76204;-73
2023/12/19 09:03:40;;;;;;;13.90;9.80;;;;;;;6.87;100.00;100770.78;107993;1254;72849;-73
2023/12/19 09:06:07;;;;;;;15.10;10.90;;;;;;;6.86;100.00;100764.98;108056;1260;72670;-73
2023/12/19 09:08:35;;;;;;;14.10;10.00;;;;;;;6.85;100.00;100753.01;108015;1254;61731;-73
2023/12/19 09:11:04;;;;;;;13.20;9.30;;;;;;;6.81;100.00;100746.69;108020;1254;59266;-72
2023/12/19 09:13:34;;;;;;;14.20;10.50;;;;;;;6.78;100.00;100747.44;108075;1257;73884;-72
2023/12/19 09:16:04;;;;;;;14.70;10.90;;;;;;;6.75;100.00;100749.48;108030;1254;71834;-73
2023/12/19 09:18:32;;;;;;;13.60;9.80;;;;;;;6.74;100.00;100751.98;107974;1257;71391;-72
2023/12/19 09:21:00;;;;;;;15.10;10.90;;;;;;;6.71;100.00;100749.41;107998;1254;63799;-72
2023/12/19 09:23:28;;;;;;;14.70;9.30;;;;;;;6.66;100.00;100744.66;107887;1254;60281;-73
2023/12/19 09:25:56;;;;;;;14.10;10.30;;;;;;;6.65;100.00;100746.77;107974;1254;75942;-73
2023/12/19 09:28:23;;;;;;;14.00;10.20;;;;;;;6.63;100.00;100743.58;107858;1254;72970;-72
2023/12/19 09:30:51;;;;;;;14.30;9.90;;;;;;;6.63;100.00;100746.55;108009;1254;70868;-72
2023/12/19 09:33:19;;;;;;;15.20;10.80;;;;;;;6.61;100.00;100746.39;108015;1254;60521;-73
2023/12/19 09:35:47;;;;;;;14.10;10.50;;;;;;;6.60;100.00;100746.90;107952;1254;60980;-73
2023/12/19 09:38:15;;;;;;;14.90;11.40;;;;;;;6.58;100.00;100742.94;107907;1254;74043;-73
2023/12/19 09:40:43;;;;;;;16.30;11.60;;;;;;;6.55;100.00;100747.27;108031;1254;72797;-72
2023/12/19 09:43:11;;;;;;;15.90;11.40;;;;;;;6.52;100.00;100747.39;107962;1254;71946;-73
2023/12/19 09:45:41;;;;;;;15.60;11.20;;;;;;;6.51;100.00;100747.94;107997;1254;60388;-73
2023/12/19 09:48:08;;;;;;;14.70;11.00;;;;;;;6.50;100.00;100748.52;107982;1254;60274;-73
2023/12/19 09:50:37;;;;;;;16.60;11.50;;;;;;;6.50;100.00;100742.44;107838;1254;72894;-74
2023/12/19 09:53:07;;;;;;;14.60;10.70;;;;;;;6.49;100.00;100738.98;108009;1254;71739;-72
2023/12/19 09:55:42;;;;;;;14.90;10.70;;;;;;;6.47;100.00;100731.05;107963;1254;74567;-74
2023/12/19 09:58:13;;;;;;;16.60;11.70;;;;;;;6.49;100.00;100726.25;108008;1254;61668;-73
2023/12/19 10:00:44;;;;;;;16.50;11.90;;;;;;;6.53;100.00;100720.73;108022;1254;60430;-73
2023/12/19 10:03:13;;;;;;;17.60;12.20;;;;;;;6.53;100.00;100706.96;107991;1254;72649;-74
2023/12/19 10:05:44;;;;;;;16.50;11.80;;;;;;;6.51;100.00;100704.57;108020;1254;72953;-73
2023/12/19 10:08:13;;;;;;;15.10;9.30;;;;;;;6.52;100.00;100699.72;108062;1257;72948;-73
2023/12/19 10:10:51;;;;;;;15.00;11.70;;;;;;;6.54;100.00;100698.17;108077;1254;63806;-73
2023/12/19 10:13:32;;;;;;;16.30;12.10;;;;;;;6.56;100.00;100686.84;108032;1253;60421;-73
2023/12/19 10:16:17;;;;;;;18.00;11.90;;;;;;;6.58;100.00;100672.23;108085;1254;76014;-73
2023/12/19 10:19:00;;;;;;;20.20;14.00;;;;;;;6.62;100.00;100671.22;108020;1254;71633;-74
2023/12/19 10:21:28;;;;;;;19.20;13.70;;;;;;;6.63;100.00;100670.32;108074;1254;72736;-73
2023/12/19 10:24:13;;;;;;;19.20;13.90;;;;;;;6.62;100.00;100657.95;108069;1254;61827;-72
2023/12/19 10:26:41;;;;;;;19.30;14.60;;;;;;;6.63;100.00;100660.72;108040;1254;60502;-73
2023/12/19 10:29:11;;;;;;;21.00;14.50;;;;;;;6.65;100.00;100647.38;108296;1254;71945;-74
2023/12/19 10:31:39;;;;;;;21.20;14.80;;;;;;;6.65;100.00;100652.98;108074;1254;72935;-73
2023/12/19 10:34:07;;;;;;;21.50;14.60;;;;;;;6.64;100.00;100659.88;108013;1257;71620;-74
2023/12/19 10:36:35;;;;;;;21.00;15.00;;;;;;;6.67;100.00;100655.30;107773;1254;61820;-73
2023/12/19 10:39:05;;;;;;;19.40;14.50;;;;;;;6.74;100.00;100632.48;107951;1254;60069;-73
2023/12/19 10:41:36;;;;;;;19.80;14.80;;;;;;;6.84;100.00;100618.52;108146;1254;76145;-73
2023/12/19 10:44:04;;;;;;;18.30;13.60;;;;;;;6.90;100.00;100601.84;108076;1254;75010;-73
2023/12/19 10:46:32;;;;;;;17.10;12.90;;;;;;;6.97;100.00;100591.27;107995;1256;72713;-73
2023/12/19 10:49:00;;;;;;;17.70;13.30;;;;;;;7.04;100.00;100584.25;108073;1259;61814;-73
2023/12/19 10:51:41;;;;;;;17.30;12.90;;;;;;;7.09;100.00;100590.25;108148;1253;59888;-73
2023/12/19 10:54:13;;;;;;;16.60;12.60;;;;;;;7.15;100.00;100581.77;108045;1254;76066;-74
2023/12/19 10:56:58;;;;;;;17.20;12.60;;;;;;;7.18;100.00;100573.08;108115;1254;71410;-73
2023/12/19 10:59:58;;;;;;;18.20;13.10;;;;;;;7.23;100.00;100576.38;108063;1254;71433;-73
2023/12/19 11:02:35;;;;;;;17.10;13.10;;;;;;;7.28;100.00;100582.85;108064;1254;61822;-73
2023/12/19 11:05:24;;;;;;;18.70;13.50;;;;;;;7.28;100.00;100580.30;108078;1259;60287;-73
2023/12/19 11:07:52;;;;;;;16.30;12.70;;;;;;;7.24;100.00;100567.58;108061;1254;74896;-73
2023/12/19 11:10:22;;;;;;;19.00;13.60;;;;;;;7.21;100.00;100572.86;107915;1253;71846;-72
2023/12/19 11:12:50;;;;;;;19.40;13.70;;;;;;;7.19;100.00;100576.17;107871;1254;72815;-74
2023/12/19 11:15:18;;;;;;;17.80;13.40;;;;;;;7.15;100.00;100575.98;107948;1256;60738;-73
2023/12/19 11:17:55;;;;;;;19.30;14.00;;;;;;;7.11;100.00;100579.55;108122;1254;60329;-73
2023/12/19 11:20:47;;;;;;;18.20;13.60;;;;;;;7.06;100.00;100565.13;108111;1254;73978;-74